AEE322 LGIR-LATI
Flight info
| Callsign | AEE322 |
|---|---|
| Flight time | 1h 21m |
| Altitude | 30000 |
| Route | LGIR/27 N0455F300 DCT EPALO M749 DIRMI UL613 YNN/N0403F240 L604 DIMIS DCT ELBAK DCT LATI/35 |
| Aircraft | A320/M-SDE3/L |
Departure
| Time | 2026-05-07 19:24 |
|---|---|
| Airport | Heraklion International Nikos Kazantzakis Airport (LGIR) |
Arrival
| Time | 2026-05-07 20:46 |
|---|---|
| Airport | Tirana International Airport Mother Teresa (LATI) |
| Time | Latitude | Longitude | Altitude | Speed | Heading |
|---|---|---|---|---|---|
| 2026-05-07 19:02 | 35.33816 | 25.17848 | 96 ft | 0 kts | 184° |
| 2026-05-07 19:15 | 35.33826 | 25.17849 | 96 ft | 2 kts | 184° |
| 2026-05-07 19:16 | 35.33843 | 25.17851 | 96 ft | 2 kts | 184° |
| 2026-05-07 19:16 | 35.33860 | 25.17852 | 96 ft | 2 kts | 184° |
| 2026-05-07 19:16 | 35.33876 | 25.17849 | 95 ft | 2 kts | 123° |
| 2026-05-07 19:16 | 35.33879 | 25.17842 | 95 ft | 0 kts | 99° |
| 2026-05-07 19:20 | 35.33880 | 25.17849 | 95 ft | 3 kts | 86° |
| 2026-05-07 19:20 | 35.33883 | 25.17911 | 100 ft | 11 kts | 93° |
| 2026-05-07 19:20 | 35.33875 | 25.18032 | 100 ft | 14 kts | 95° |
| 2026-05-07 19:21 | 35.33867 | 25.18156 | 103 ft | 15 kts | 94° |
| 2026-05-07 19:21 | 35.33858 | 25.18284 | 105 ft | 16 kts | 96° |
| 2026-05-07 19:21 | 35.33848 | 25.18422 | 107 ft | 17 kts | 94° |
| 2026-05-07 19:21 | 35.33838 | 25.18569 | 110 ft | 18 kts | 95° |
| 2026-05-07 19:22 | 35.33829 | 25.18717 | 113 ft | 18 kts | 94° |
| 2026-05-07 19:22 | 35.33817 | 25.18869 | 116 ft | 18 kts | 94° |
| 2026-05-07 19:22 | 35.33857 | 25.19012 | 114 ft | 17 kts | 68° |
| 2026-05-07 19:22 | 35.33904 | 25.19021 | 114 ft | 11 kts | 291° |
| 2026-05-07 19:23 | 35.33910 | 25.18961 | 113 ft | 0 kts | 275° |
| 2026-05-07 19:23 | 35.33911 | 25.18948 | 116 ft | 5 kts | 275° |
| 2026-05-07 19:24 | 35.33928 | 25.18692 | 111 ft | 65 kts | 275° |
| 2026-05-07 19:24 | 35.33984 | 25.17869 | 98 ft | 125 kts | 275° |
| 2026-05-07 19:24 | 35.34064 | 25.16613 | 120 ft | 166 kts | 273° |
| 2026-05-07 19:24 | 35.34167 | 25.15248 | 823 ft | 159 kts | 278° |
| 2026-05-07 19:25 | 35.34703 | 25.14089 | 1444 ft | 161 kts | 327° |
| 2026-05-07 19:25 | 35.35755 | 25.13601 | 1960 ft | 171 kts | 348° |
| 2026-05-07 19:25 | 35.36978 | 25.13220 | 2323 ft | 190 kts | 347° |
| 2026-05-07 19:25 | 35.38296 | 25.12737 | 2802 ft | 204 kts | 343° |
| 2026-05-07 19:26 | 35.39662 | 25.12142 | 3353 ft | 212 kts | 340° |
| 2026-05-07 19:26 | 35.41052 | 25.11465 | 3858 ft | 220 kts | 341° |
| 2026-05-07 19:26 | 35.42615 | 25.10939 | 4150 ft | 246 kts | 347° |
| 2026-05-07 19:26 | 35.44361 | 25.10440 | 4638 ft | 267 kts | 347° |
| 2026-05-07 19:27 | 35.46187 | 25.09890 | 5433 ft | 274 kts | 346° |
| 2026-05-07 19:27 | 35.48018 | 25.09303 | 6306 ft | 276 kts | 345° |
| 2026-05-07 19:27 | 35.49871 | 25.08684 | 7251 ft | 275 kts | 343° |
| 2026-05-07 19:27 | 35.51722 | 25.08049 | 8133 ft | 277 kts | 343° |
| 2026-05-07 19:28 | 35.53580 | 25.07413 | 9010 ft | 279 kts | 343° |
| 2026-05-07 19:28 | 35.55467 | 25.06749 | 9773 ft | 283 kts | 342° |
| 2026-05-07 19:28 | 35.57367 | 25.06070 | 10571 ft | 286 kts | 342° |
| 2026-05-07 19:28 | 35.59327 | 25.05364 | 10930 ft | 305 kts | 342° |
| 2026-05-07 19:29 | 35.61445 | 25.04606 | 11112 ft | 328 kts | 342° |
| 2026-05-07 19:29 | 35.63680 | 25.03812 | 11597 ft | 338 kts | 342° |
| 2026-05-07 19:29 | 35.65957 | 25.03005 | 12262 ft | 342 kts | 342° |
| 2026-05-07 19:29 | 35.68251 | 25.02191 | 12947 ft | 345 kts | 342° |
| 2026-05-07 19:30 | 35.70569 | 25.01365 | 13622 ft | 349 kts | 342° |
| 2026-05-07 19:30 | 35.72904 | 25.00476 | 14213 ft | 353 kts | 339° |
| 2026-05-07 19:30 | 35.75229 | 24.99452 | 14789 ft | 356 kts | 337° |
| 2026-05-07 19:30 | 35.77549 | 24.98347 | 15397 ft | 358 kts | 336° |
| 2026-05-07 19:31 | 35.79875 | 24.97210 | 16011 ft | 360 kts | 336° |
| 2026-05-07 19:31 | 35.82210 | 24.96066 | 16619 ft | 362 kts | 336° |
| 2026-05-07 19:31 | 35.84533 | 24.94941 | 17220 ft | 364 kts | 336° |
| 2026-05-07 19:31 | 35.86928 | 24.93796 | 17839 ft | 366 kts | 336° |
| 2026-05-07 19:32 | 35.89316 | 24.92664 | 18446 ft | 369 kts | 336° |
| 2026-05-07 19:32 | 35.91723 | 24.91529 | 18990 ft | 371 kts | 336° |
| 2026-05-07 19:32 | 35.94104 | 24.90410 | 19542 ft | 372 kts | 336° |
| 2026-05-07 19:32 | 35.96530 | 24.89269 | 20127 ft | 373 kts | 336° |
| 2026-05-07 19:33 | 35.98962 | 24.88121 | 20679 ft | 375 kts | 336° |
| 2026-05-07 19:33 | 36.01405 | 24.86966 | 21218 ft | 377 kts | 336° |
| 2026-05-07 19:33 | 36.03857 | 24.85800 | 21746 ft | 378 kts | 335° |
| 2026-05-07 19:33 | 36.06180 | 24.84309 | 22251 ft | 377 kts | 325° |
| 2026-05-07 19:34 | 36.08266 | 24.82352 | 22750 ft | 377 kts | 320° |
| 2026-05-07 19:34 | 36.10316 | 24.80307 | 23244 ft | 379 kts | 320° |
| 2026-05-07 19:34 | 36.12379 | 24.78261 | 23736 ft | 381 kts | 320° |
| 2026-05-07 19:34 | 36.14452 | 24.76209 | 24156 ft | 382 kts | 320° |
| 2026-05-07 19:35 | 36.16526 | 24.74158 | 24605 ft | 382 kts | 320° |
| 2026-05-07 19:35 | 36.18604 | 24.72102 | 25058 ft | 382 kts | 320° |
| 2026-05-07 19:35 | 36.20679 | 24.70046 | 25515 ft | 382 kts | 320° |
| 2026-05-07 19:35 | 36.22753 | 24.67982 | 25960 ft | 382 kts | 319° |
| 2026-05-07 19:36 | 36.24124 | 24.66617 | 26256 ft | 382 kts | 319° |
| 2026-05-07 19:36 | 36.26194 | 24.64555 | 26691 ft | 382 kts | 319° |
| 2026-05-07 19:36 | 36.28270 | 24.62488 | 27113 ft | 383 kts | 319° |
| 2026-05-07 19:36 | 36.30347 | 24.60418 | 27557 ft | 383 kts | 319° |
| 2026-05-07 19:37 | 36.32421 | 24.58348 | 27999 ft | 383 kts | 319° |
| 2026-05-07 19:37 | 36.34500 | 24.56271 | 28444 ft | 383 kts | 319° |
| 2026-05-07 19:37 | 36.36574 | 24.54195 | 28876 ft | 384 kts | 319° |
| 2026-05-07 19:37 | 36.38655 | 24.52112 | 29301 ft | 384 kts | 319° |
| 2026-05-07 19:38 | 36.40737 | 24.50030 | 29718 ft | 385 kts | 318° |
| 2026-05-07 19:38 | 36.42821 | 24.47942 | 30096 ft | 384 kts | 318° |
| 2026-05-07 19:38 | 36.46893 | 24.43865 | 30149 ft | 370 kts | 318° |
| 2026-05-07 19:39 | 36.50879 | 24.39870 | 30149 ft | 367 kts | 318° |
| 2026-05-07 19:39 | 36.54820 | 24.35905 | 30151 ft | 367 kts | 317° |
| 2026-05-07 19:40 | 36.58784 | 24.31903 | 30149 ft | 367 kts | 317° |
| 2026-05-07 19:40 | 36.62753 | 24.27901 | 30150 ft | 367 kts | 317° |
| 2026-05-07 19:41 | 36.66723 | 24.23897 | 30152 ft | 367 kts | 317° |
| 2026-05-07 19:41 | 36.70694 | 24.19889 | 30153 ft | 367 kts | 317° |
| 2026-05-07 19:42 | 36.74657 | 24.15882 | 30152 ft | 367 kts | 317° |
| 2026-05-07 19:42 | 36.78620 | 24.11873 | 30148 ft | 367 kts | 317° |
| 2026-05-07 19:43 | 36.82580 | 24.07855 | 30163 ft | 367 kts | 317° |
| 2026-05-07 19:43 | 36.86511 | 24.03849 | 30142 ft | 368 kts | 317° |
| 2026-05-07 19:44 | 36.90486 | 23.99810 | 30136 ft | 368 kts | 317° |
| 2026-05-07 19:44 | 36.94466 | 23.95765 | 30141 ft | 369 kts | 317° |
| 2026-05-07 19:45 | 36.98444 | 23.91711 | 30141 ft | 369 kts | 317° |
| 2026-05-07 19:45 | 37.02417 | 23.87647 | 30142 ft | 369 kts | 317° |
| 2026-05-07 19:46 | 37.06394 | 23.83580 | 30139 ft | 369 kts | 317° |
| 2026-05-07 19:46 | 37.10371 | 23.79514 | 30145 ft | 369 kts | 317° |
| 2026-05-07 19:47 | 37.14352 | 23.75439 | 30128 ft | 370 kts | 317° |
| 2026-05-07 19:47 | 37.18346 | 23.71337 | 30117 ft | 371 kts | 316° |
| 2026-05-07 19:48 | 37.22342 | 23.67232 | 30123 ft | 371 kts | 316° |
| 2026-05-07 19:48 | 37.26311 | 23.63146 | 30127 ft | 371 kts | 316° |
| 2026-05-07 19:49 | 37.30336 | 23.59000 | 30131 ft | 372 kts | 316° |
| 2026-05-07 19:49 | 37.34305 | 23.54901 | 30134 ft | 372 kts | 316° |
| 2026-05-07 19:50 | 37.38297 | 23.50783 | 30134 ft | 371 kts | 316° |
| 2026-05-07 19:50 | 37.42300 | 23.46635 | 30124 ft | 373 kts | 317° |
| 2026-05-07 19:51 | 37.46322 | 23.42458 | 30106 ft | 376 kts | 316° |
| 2026-05-07 19:51 | 37.50363 | 23.38254 | 30117 ft | 377 kts | 316° |
| 2026-05-07 19:52 | 37.54422 | 23.34038 | 30118 ft | 378 kts | 316° |
| 2026-05-07 19:52 | 37.58486 | 23.29816 | 30119 ft | 379 kts | 316° |
| 2026-05-07 19:53 | 37.62548 | 23.25591 | 30125 ft | 379 kts | 316° |
| 2026-05-07 19:53 | 37.66610 | 23.21352 | 30134 ft | 379 kts | 316° |
| 2026-05-07 19:54 | 37.70656 | 23.17118 | 30123 ft | 381 kts | 316° |
| 2026-05-07 19:54 | 37.74739 | 23.12838 | 30113 ft | 382 kts | 316° |
| 2026-05-07 19:55 | 37.78841 | 23.08537 | 30123 ft | 383 kts | 316° |
| 2026-05-07 19:55 | 37.82955 | 23.04215 | 30124 ft | 384 kts | 316° |
| 2026-05-07 19:56 | 37.87064 | 22.99887 | 30131 ft | 385 kts | 316° |
| 2026-05-07 19:56 | 37.91181 | 22.95549 | 30134 ft | 385 kts | 316° |
| 2026-05-07 19:57 | 37.95244 | 22.91176 | 30165 ft | 384 kts | 314° |
| 2026-05-07 19:57 | 37.99181 | 22.86584 | 30123 ft | 386 kts | 313° |
| 2026-05-07 19:58 | 38.03111 | 22.81920 | 30118 ft | 387 kts | 313° |
| 2026-05-07 19:58 | 38.07075 | 22.77269 | 30110 ft | 389 kts | 313° |
| 2026-05-07 19:59 | 38.11066 | 22.72619 | 30118 ft | 389 kts | 313° |
| 2026-05-07 19:59 | 38.15051 | 22.67975 | 30123 ft | 389 kts | 313° |
| 2026-05-07 20:00 | 38.19054 | 22.63338 | 30145 ft | 389 kts | 313° |
| 2026-05-07 20:00 | 38.23051 | 22.58700 | 30140 ft | 389 kts | 313° |
| 2026-05-07 20:01 | 38.27050 | 22.54038 | 30142 ft | 390 kts | 313° |
| 2026-05-07 20:01 | 38.31044 | 22.49359 | 30135 ft | 390 kts | 313° |
| 2026-05-07 20:02 | 38.35044 | 22.44674 | 30123 ft | 391 kts | 313° |
| 2026-05-07 20:02 | 38.39037 | 22.39995 | 30148 ft | 389 kts | 313° |
| 2026-05-07 20:03 | 38.43017 | 22.35316 | 30157 ft | 388 kts | 313° |
| 2026-05-07 20:03 | 38.46964 | 22.30675 | 30154 ft | 388 kts | 313° |
| 2026-05-07 20:04 | 38.50928 | 22.26013 | 30153 ft | 387 kts | 313° |
| 2026-05-07 20:04 | 38.54890 | 22.21341 | 30155 ft | 387 kts | 313° |
| 2026-05-07 20:05 | 38.58844 | 22.16673 | 30148 ft | 386 kts | 313° |
| 2026-05-07 20:05 | 38.62785 | 22.12008 | 30144 ft | 386 kts | 312° |
| 2026-05-07 20:06 | 38.66711 | 22.07345 | 30155 ft | 384 kts | 312° |
| 2026-05-07 20:06 | 38.70626 | 22.02693 | 30156 ft | 383 kts | 313° |
| 2026-05-07 20:07 | 38.74532 | 21.98055 | 30152 ft | 383 kts | 312° |
| 2026-05-07 20:07 | 38.78433 | 21.93409 | 30139 ft | 382 kts | 312° |
| 2026-05-07 20:08 | 38.82333 | 21.88760 | 30153 ft | 383 kts | 312° |
| 2026-05-07 20:08 | 38.86232 | 21.84109 | 30141 ft | 383 kts | 312° |
| 2026-05-07 20:09 | 38.90124 | 21.79441 | 30138 ft | 383 kts | 312° |
| 2026-05-07 20:10 | 38.95938 | 21.72442 | 30119 ft | 384 kts | 311° |
| 2026-05-07 20:10 | 38.99845 | 21.67751 | 30117 ft | 384 kts | 312° |
| 2026-05-07 20:11 | 39.03760 | 21.63054 | 30119 ft | 385 kts | 311° |
| 2026-05-07 20:11 | 39.07665 | 21.58351 | 30117 ft | 384 kts | 311° |
| 2026-05-07 20:12 | 39.11562 | 21.53629 | 30145 ft | 385 kts | 311° |
| 2026-05-07 20:12 | 39.15461 | 21.48907 | 30147 ft | 384 kts | 311° |
| 2026-05-07 20:13 | 39.19331 | 21.44225 | 30140 ft | 384 kts | 311° |
| 2026-05-07 20:13 | 39.23225 | 21.39502 | 30140 ft | 384 kts | 311° |
| 2026-05-07 20:14 | 39.27109 | 21.34778 | 30138 ft | 383 kts | 311° |
| 2026-05-07 20:14 | 39.30990 | 21.30055 | 30139 ft | 383 kts | 311° |
| 2026-05-07 20:15 | 39.34869 | 21.25322 | 30145 ft | 384 kts | 311° |
| 2026-05-07 20:15 | 39.38750 | 21.20581 | 30156 ft | 384 kts | 311° |
| 2026-05-07 20:16 | 39.42646 | 21.15826 | 30139 ft | 385 kts | 311° |
| 2026-05-07 20:16 | 39.46544 | 21.11046 | 30137 ft | 386 kts | 310° |
| 2026-05-07 20:17 | 39.50440 | 21.06257 | 30145 ft | 386 kts | 310° |
| 2026-05-07 20:17 | 39.54337 | 21.01466 | 30151 ft | 386 kts | 310° |
| 2026-05-07 20:18 | 39.58233 | 20.96673 | 30158 ft | 386 kts | 310° |
| 2026-05-07 20:18 | 39.62101 | 20.91902 | 30161 ft | 386 kts | 310° |
| 2026-05-07 20:19 | 39.65997 | 20.87095 | 30166 ft | 387 kts | 311° |
| 2026-05-07 20:19 | 39.70042 | 20.82420 | 30147 ft | 395 kts | 319° |
| 2026-05-07 20:20 | 39.75000 | 20.79095 | 30147 ft | 404 kts | 328° |
| 2026-05-07 20:20 | 39.80107 | 20.76011 | 30146 ft | 405 kts | 328° |
| 2026-05-07 20:21 | 39.85210 | 20.72916 | 30140 ft | 405 kts | 328° |
| 2026-05-07 20:21 | 39.90327 | 20.69806 | 30152 ft | 406 kts | 328° |
| 2026-05-07 20:22 | 39.95453 | 20.66679 | 30113 ft | 408 kts | 328° |
| 2026-05-07 20:22 | 40.00567 | 20.63554 | 30101 ft | 409 kts | 328° |
| 2026-05-07 20:23 | 40.05727 | 20.60398 | 30094 ft | 410 kts | 328° |
| 2026-05-07 20:23 | 40.10049 | 20.57726 | 30116 ft | 410 kts | 327° |
| 2026-05-07 20:24 | 40.15175 | 20.54438 | 30127 ft | 410 kts | 327° |
| 2026-05-07 20:24 | 40.20279 | 20.51115 | 30125 ft | 410 kts | 327° |
| 2026-05-07 20:25 | 40.25403 | 20.47805 | 30131 ft | 411 kts | 327° |
| 2026-05-07 20:25 | 40.30530 | 20.44507 | 30122 ft | 411 kts | 327° |
| 2026-05-07 20:26 | 40.35632 | 20.41219 | 30134 ft | 411 kts | 327° |
| 2026-05-07 20:26 | 40.40777 | 20.37886 | 30119 ft | 413 kts | 327° |
| 2026-05-07 20:27 | 40.45935 | 20.34545 | 30119 ft | 413 kts | 327° |
| 2026-05-07 20:27 | 40.51097 | 20.31193 | 30102 ft | 414 kts | 327° |
| 2026-05-07 20:28 | 40.56254 | 20.27842 | 29746 ft | 412 kts | 327° |
| 2026-05-07 20:28 | 40.58817 | 20.26179 | 29466 ft | 408 kts | 327° |
| 2026-05-07 20:28 | 40.61338 | 20.24543 | 29045 ft | 402 kts | 328° |
| 2026-05-07 20:28 | 40.63833 | 20.22924 | 28529 ft | 398 kts | 328° |
| 2026-05-07 20:29 | 40.66299 | 20.21319 | 28038 ft | 393 kts | 328° |
| 2026-05-07 20:29 | 40.68740 | 20.19722 | 27524 ft | 390 kts | 328° |
| 2026-05-07 20:29 | 40.71158 | 20.18136 | 27046 ft | 387 kts | 328° |
| 2026-05-07 20:29 | 40.73556 | 20.16563 | 26561 ft | 384 kts | 328° |
| 2026-05-07 20:30 | 40.75936 | 20.15000 | 26100 ft | 381 kts | 329° |
| 2026-05-07 20:30 | 40.78301 | 20.13445 | 25638 ft | 380 kts | 329° |
| 2026-05-07 20:30 | 40.80637 | 20.11910 | 25195 ft | 378 kts | 329° |
| 2026-05-07 20:30 | 40.82989 | 20.10364 | 24770 ft | 376 kts | 329° |
| 2026-05-07 20:31 | 40.85271 | 20.08700 | 24312 ft | 372 kts | 322° |
| 2026-05-07 20:31 | 40.87282 | 20.06587 | 23867 ft | 367 kts | 313° |
| 2026-05-07 20:31 | 40.88983 | 20.04111 | 23400 ft | 363 kts | 307° |
| 2026-05-07 20:31 | 40.90602 | 20.01577 | 22969 ft | 359 kts | 307° |
| 2026-05-07 20:32 | 40.92210 | 19.99073 | 22550 ft | 355 kts | 307° |
| 2026-05-07 20:32 | 40.93803 | 19.96597 | 22121 ft | 352 kts | 307° |
| 2026-05-07 20:32 | 40.95379 | 19.94142 | 21697 ft | 348 kts | 307° |
| 2026-05-07 20:32 | 40.96936 | 19.91707 | 21262 ft | 346 kts | 307° |
| 2026-05-07 20:33 | 40.98481 | 19.89282 | 20829 ft | 344 kts | 307° |
| 2026-05-07 20:33 | 41.00020 | 19.86865 | 20396 ft | 342 kts | 307° |
| 2026-05-07 20:33 | 41.01552 | 19.84457 | 19935 ft | 341 kts | 307° |
| 2026-05-07 20:33 | 41.03068 | 19.82073 | 19495 ft | 333 kts | 307° |
| 2026-05-07 20:34 | 41.04562 | 19.79724 | 19141 ft | 342 kts | 307° |
| 2026-05-07 20:34 | 41.06136 | 19.77239 | 18455 ft | 355 kts | 307° |
| 2026-05-07 20:34 | 41.07730 | 19.74729 | 17809 ft | 357 kts | 307° |
| 2026-05-07 20:34 | 41.09323 | 19.72225 | 17474 ft | 353 kts | 307° |
| 2026-05-07 20:35 | 41.10893 | 19.69756 | 17098 ft | 348 kts | 307° |
| 2026-05-07 20:35 | 41.12443 | 19.67311 | 16624 ft | 345 kts | 306° |
| 2026-05-07 20:35 | 41.13985 | 19.64872 | 16149 ft | 344 kts | 306° |
| 2026-05-07 20:35 | 41.15588 | 19.62549 | 15679 ft | 344 kts | 315° |
| 2026-05-07 20:36 | 41.17558 | 19.60719 | 15215 ft | 348 kts | 329° |
| 2026-05-07 20:36 | 41.19823 | 19.59549 | 14717 ft | 353 kts | 343° |
| 2026-05-07 20:36 | 41.22264 | 19.59068 | 14224 ft | 356 kts | 352° |
| 2026-05-07 20:36 | 41.24726 | 19.58746 | 13704 ft | 356 kts | 352° |
| 2026-05-07 20:37 | 41.27190 | 19.58418 | 13178 ft | 355 kts | 352° |
| 2026-05-07 20:37 | 41.29641 | 19.58088 | 12673 ft | 353 kts | 352° |
| 2026-05-07 20:37 | 41.32083 | 19.57755 | 12188 ft | 352 kts | 352° |
| 2026-05-07 20:37 | 41.34518 | 19.57421 | 11699 ft | 351 kts | 352° |
| 2026-05-07 20:38 | 41.36948 | 19.57086 | 11204 ft | 350 kts | 352° |
| 2026-05-07 20:38 | 41.39336 | 19.56757 | 10728 ft | 350 kts | 353° |
| 2026-05-07 20:38 | 41.41748 | 19.56427 | 10356 ft | 345 kts | 353° |
| 2026-05-07 20:38 | 41.44101 | 19.56109 | 10233 ft | 334 kts | 353° |
| 2026-05-07 20:39 | 41.46373 | 19.55802 | 10115 ft | 323 kts | 353° |
| 2026-05-07 20:39 | 41.48576 | 19.55504 | 9979 ft | 314 kts | 353° |
| 2026-05-07 20:39 | 41.50740 | 19.55212 | 9645 ft | 312 kts | 353° |
| 2026-05-07 20:39 | 41.52891 | 19.54921 | 9287 ft | 310 kts | 353° |
| 2026-05-07 20:40 | 41.55037 | 19.54632 | 8963 ft | 309 kts | 353° |
| 2026-05-07 20:40 | 41.57167 | 19.54344 | 8605 ft | 307 kts | 353° |
| 2026-05-07 20:40 | 41.59291 | 19.54053 | 8266 ft | 306 kts | 354° |
| 2026-05-07 20:40 | 41.61392 | 19.54297 | 7928 ft | 304 kts | 21° |
| 2026-05-07 20:41 | 41.63136 | 19.55813 | 7420 ft | 304 kts | 51° |
| 2026-05-07 20:41 | 41.64107 | 19.58329 | 6638 ft | 310 kts | 82° |
| 2026-05-07 20:41 | 41.64387 | 19.61227 | 5800 ft | 321 kts | 87° |
| 2026-05-07 20:41 | 41.64595 | 19.64249 | 4939 ft | 331 kts | 87° |
| 2026-05-07 20:42 | 41.64466 | 19.67255 | 4485 ft | 324 kts | 109° |
| 2026-05-07 20:42 | 41.63353 | 19.69756 | 4143 ft | 313 kts | 136° |
| 2026-05-07 20:42 | 41.61488 | 19.71153 | 3733 ft | 308 kts | 166° |
| 2026-05-07 20:42 | 41.59374 | 19.71082 | 3345 ft | 306 kts | 196° |
| 2026-05-07 20:43 | 41.57385 | 19.70117 | 2966 ft | 302 kts | 195° |
| 2026-05-07 20:43 | 41.55327 | 19.69985 | 2592 ft | 294 kts | 171° |
| 2026-05-07 20:43 | 41.53365 | 19.70418 | 2219 ft | 279 kts | 171° |
| 2026-05-07 20:43 | 41.51483 | 19.70738 | 1866 ft | 266 kts | 173° |
| 2026-05-07 20:44 | 41.49702 | 19.70968 | 1514 ft | 246 kts | 174° |
| 2026-05-07 20:44 | 41.48080 | 19.71177 | 1244 ft | 222 kts | 174° |
| 2026-05-07 20:44 | 41.46612 | 19.71372 | 960 ft | 203 kts | 174° |
| 2026-05-07 20:44 | 41.45278 | 19.71550 | 707 ft | 183 kts | 174° |
| 2026-05-07 20:45 | 41.44081 | 19.71709 | 456 ft | 162 kts | 174° |
| 2026-05-07 20:45 | 41.43029 | 19.71852 | 208 ft | 144 kts | 174° |
| 2026-05-07 20:45 | 41.42079 | 19.71984 | 139 ft | 124 kts | 174° |
| 2026-05-07 20:45 | 41.41307 | 19.72077 | 129 ft | 93 kts | 174° |
| 2026-05-07 20:46 | 41.40780 | 19.72149 | 133 ft | 62 kts | 174° |
| 2026-05-07 20:46 | 41.40425 | 19.72197 | 131 ft | 42 kts | 174° |
| 2026-05-07 20:46 | 41.40281 | 19.72214 | 132 ft | 12 kts | 186° |
| 2026-05-07 20:46 | 41.40247 | 19.72120 | 133 ft | 13 kts | 265° |
| 2026-05-07 20:47 | 41.40244 | 19.71989 | 133 ft | 15 kts | 288° |
| 2026-05-07 20:47 | 41.40326 | 19.71886 | 133 ft | 18 kts | 326° |
| 2026-05-07 20:47 | 41.40444 | 19.71806 | 132 ft | 20 kts | 358° |
| 2026-05-07 20:47 | 41.40590 | 19.71782 | 132 ft | 23 kts | 353° |
| 2026-05-07 20:48 | 41.40757 | 19.71760 | 132 ft | 25 kts | 354° |
| 2026-05-07 20:48 | 41.40940 | 19.71717 | 127 ft | 28 kts | 351° |
| 2026-05-07 20:48 | 41.41136 | 19.71689 | 128 ft | 28 kts | 354° |
| 2026-05-07 20:48 | 41.41339 | 19.71663 | 124 ft | 31 kts | 355° |
| 2026-05-07 20:49 | 41.41562 | 19.71632 | 123 ft | 34 kts | 354° |
| 2026-05-07 20:49 | 41.41777 | 19.71604 | 121 ft | 20 kts | 353° |
| 2026-05-07 20:49 | 41.41866 | 19.71589 | 122 ft | 6 kts | 353° |
| 2026-05-07 20:49 | 41.41893 | 19.71587 | 124 ft | 1 kts | 357° |
| 2026-05-07 20:50 | 41.41905 | 19.71573 | 120 ft | 4 kts | 303° |
| 2026-05-07 20:50 | 41.41909 | 19.71534 | 123 ft | 0 kts | 268° |
| 2026-05-07 20:50 | 41.41909 | 19.71533 | 123 ft | 1 kts | 265° |
| 2026-05-07 20:50 | 41.41910 | 19.71529 | 123 ft | 2 kts | 272° |
| 2026-05-07 20:51 | 41.41909 | 19.71520 | 123 ft | 0 kts | 265° |